Latest Weather Observations for Brisbane Airport

IDQ60901

Issued at 6:01 pm EST Monday 17 January 2022 (issued every 10 minutes, with the page automatically refreshed every 10 minutes)

About weather observations | Map of Brisbane area stations | Latest observations for Brisbane area | Other Formats
Station Details ID: 040842 Name: BRISBANE AERO Lat: -27.39 Lon: 153.13 Height: 4.51 m
Data from the previous 72 hours. | See also: Recent months at Brisbane Airport
Date/Time
EST
Temp
°C
App
Temp
°C
Dew
Point
°C
Rel
Hum
%
Delta-T
°C
Wind Press
QNH
hPa
Press
MSL
hPa
Rain since
9am
mm
Dir  Spd
km/h
Gust
km/h
Spd
kts
Gust
kts
17/05:30pm 27.2 28.6 22.6 76 3.1 ENE 19 28 10 15 1009.9 1009.9 0.0
17/05:00pm 27.4 28.8 22.8 76 3.1 NE 20 28 11 15 1009.6 1009.6 0.0
17/04:30pm 28.3 29.1 22.5 71 3.9 ENE 22 30 12 16 1009.2 1009.2 0.0
17/04:00pm 29.1 29.0 22.3 66 4.6 NE 26 32 14 17 1008.9 1008.9 0.0
17/03:30pm 29.5 29.8 22.2 65 4.9 NE 24 32 13 17 1008.9 1008.9 0.0
17/03:00pm 29.3 30.3 21.8 64 5.1 ENE 19 26 10 14 1009.1 1009.1 0.0
17/02:30pm 29.3 30.6 22.3 66 4.7 ENE 19 28 10 15 1009.3 1009.3 0.0
17/02:00pm 28.8 30.0 22.1 67 4.5 ENE 19 28 10 15 1009.4 1009.4 0.0
17/01:30pm 30.0 29.8 20.5 56 6.3 ENE 22 30 12 16 1009.5 1009.5 0.0
17/01:00pm 29.7 29.8 20.3 57 6.2 ENE 20 28 11 15 1009.7 1009.7 0.0
17/12:30pm 29.5 29.7 20.6 58 5.9 ENE 20 26 11 14 1010.0 1010.0 0.0
17/12:00pm 29.3 30.5 21.5 63 5.2 NE 17 24 9 13 1010.4 1010.4 0.0
17/11:30am 29.0 29.7 20.4 59 5.7 NE 17 22 9 12 1010.6 1010.6 0.0
17/11:00am 29.3 30.2 21.5 63 5.2 NE 19 26 10 14 1010.5 1010.5 0.0
17/10:30am 29.2 29.7 20.1 58 6.0 ENE 17 20 9 11 1010.5 1010.5 0.0
17/10:00am 28.9 29.7 19.8 58 6.0 NE 15 20 8 11 1010.7 1010.7 0.0
17/09:30am 28.7 30.1 19.6 58 5.9 NNE 11 20 6 11 1011.0 1011.0 0.0
17/09:00am 28.5 30.6 21.0 64 5.0 N 11 15 6 8 1011.1 1011.1 0.2
17/08:30am 27.9 29.0 19.7 61 5.3 NNE 13 17 7 9 1011.0 1011.0 0.2
17/08:00am 27.8 28.9 20.4 64 4.9 NNW 15 20 8 11 1010.8 1010.8 0.2
17/07:30am 27.5 30.1 22.0 72 3.7 NW 11 15 6 8 1010.7 1010.7 0.2
17/07:00am 25.9 29.2 21.8 78 2.7 NW 7 9 4 5 1010.5 1010.5 0.2
17/06:30am 25.3 28.6 21.8 81 2.3 NW 7 11 4 6 1010.7 1010.7 0.2
17/06:00am 24.6 28.3 21.5 83 2.1 NW 4 9 2 5 1010.6 1010.6 0.2
17/05:30am 24.2 27.1 21.7 86 1.7 WNW 9 9 5 5 1010.7 1010.7 0.2
17/05:00am 24.0 26.9 21.7 87 1.5 WNW 9 11 5 6 1009.8 1009.8 0.2
17/04:30am 23.8 28.4 21.7 88 1.4 CALM 0 0 0 0 1009.0 1009.0 0.2
17/04:00am 23.6 28.1 21.5 88 1.4 CALM 0 0 0 0 1009.3 1009.3 0.2
17/03:30am 24.0 27.7 21.5 86 1.7 NW 4 7 2 4 1008.9 1008.9 0.2
17/03:00am 24.4 26.6 21.9 86 1.7 N 13 17 7 9 1009.1 1009.1 0.2
17/02:30am 24.9 25.7 21.4 81 2.3 N 19 24 10 13 1008.9 1008.9 0.2
17/02:00am 25.0 26.3 21.7 82 2.2 N 17 20 9 11 1009.1 1009.1 0.2
17/01:30am 25.2 26.6 21.9 82 2.2 N 17 22 9 12 1009.2 1009.2 0.2
17/01:00am 24.8 26.7 22.1 85 1.8 NNE 15 19 8 10 1009.5 1009.5 0.2
17/12:30am 25.3 27.1 21.8 81 2.3 NNE 15 19 8 10 1009.4 1009.4 0.2
17/12:00am 25.3 26.7 21.8 81 2.3 NNE 17 20 9 11 1009.4 1009.4 0.2
 
Date/Time
EST
Temp
°C
App
Temp
°C
Dew
Point
°C
Rel
Hum
%
Delta-T
°C
Wind Press
QNH
hPa
Press
MSL
hPa
Rain since
9am
mm
Dir  Spd
km/h
Gust
km/h
Spd
kts
Gust
kts
16/11:30pm 25.7 26.8 22.0 80 2.5 N 19 22 10 12 1009.5 1009.5 0.2
16/11:00pm 25.6 26.7 21.9 80 2.5 N 19 26 10 14 1009.5 1009.5 0.2
16/10:30pm 25.5 26.4 22.0 81 2.3 NNE 20 26 11 14 1010.0 1010.0 0.2
16/10:00pm 25.5 26.3 21.8 80 2.5 NNE 20 28 11 15 1010.0 1010.0 0.2
16/09:30pm 25.7 26.0 21.6 78 2.7 N 22 30 12 16 1009.8 1009.8 0.2
16/09:00pm 25.5 26.1 21.4 78 2.7 NNE 20 28 11 15 1009.4 1009.4 0.2
16/08:30pm 25.8 25.6 21.2 76 3.0 NNE 24 32 13 17 1009.1 1009.1 0.2
16/08:00pm 26.1 27.2 21.3 75 3.2 NNE 17 22 9 12 1009.2 1009.2 0.2
16/07:30pm 25.9 25.5 21.6 77 2.9 NNE 26 35 14 19 1008.5 1008.5 0.2
16/07:00pm 26.0 26.5 21.9 78 2.7 NNE 22 30 12 16 1008.1 1008.1 0.2
16/06:30pm 25.9 26.4 22.0 79 2.6 NNE 22 30 12 16 1007.3 1007.3 0.2
16/06:00pm 26.1 26.1 21.7 77 2.9 NNE 24 32 13 17 1007.2 1007.2 0.2
16/05:30pm 26.5 26.1 21.7 75 3.2 NNE 26 32 14 17 1006.9 1006.9 0.2
16/05:00pm 27.3 27.3 21.6 71 3.8 NNE 24 32 13 17 1006.6 1006.6 0.2
16/04:30pm 27.7 27.2 22.2 72 3.7 NNE 28 35 15 19 1006.2 1006.2 0.2
16/04:00pm 27.5 27.7 22.0 72 3.7 NNE 24 32 13 17 1006.1 1006.1 0.2
16/03:30pm 28.3 28.5 22.8 72 3.7 NE 26 33 14 18 1006.4 1006.4 0.2
16/03:00pm 27.6 27.7 21.2 68 4.3 NE 22 32 12 17 1006.6 1006.6 0.2
16/02:30pm 29.3 30.4 22.3 66 4.7 NE 20 26 11 14 1006.7 1006.7 0.2
16/02:00pm 28.7 29.0 20.7 62 5.3 NE 20 26 11 14 1006.8 1006.8 0.2
16/01:30pm 28.6 28.9 20.3 60 5.5 ENE 19 28 10 15 1007.0 1007.0 0.2
16/01:00pm 28.4 29.2 20.7 63 5.1 ENE 17 22 9 12 1007.3 1007.3 0.2
16/12:30pm 27.1 27.8 20.4 66 4.4 NE 17 19 9 10 1007.4 1007.4 0.2
16/12:00pm 27.4 27.8 20.7 67 4.4 NE 19 26 10 14 1007.8 1007.8 0.2
16/11:30am 28.6 29.5 20.9 63 5.1 NE 17 22 9 12 1007.9 1007.9 0.2
16/11:00am 28.7 30.5 21.2 64 5.0 NE 13 19 7 10 1008.2 1008.2 0.2
16/10:30am 28.2 29.8 20.0 61 5.4 NNE 11 15 6 8 1008.3 1008.3 0.0
16/10:00am 27.7 28.2 17.5 53 6.4 NW 11 17 6 9 1008.4 1008.4 0.0
16/09:30am 27.7 29.1 19.5 61 5.3 WSW 11 15 6 8 1008.7 1008.7 0.0
16/09:00am 26.4 26.9 19.3 65 4.6 NW 15 19 8 10 1008.9 1008.9 3.4
16/08:30am 25.8 26.5 19.7 69 3.9 WNW 15 19 8 10 1009.1 1009.1 3.4
16/08:00am 25.0 26.6 19.1 69 3.8 NW 9 13 5 7 1009.1 1009.1 3.4
16/07:30am 24.4 26.0 19.9 76 2.9 WNW 11 15 6 8 1009.4 1009.4 3.4
16/07:00am 23.1 24.8 20.2 84 1.9 NW 11 17 6 9 1009.3 1009.3 3.4
16/06:30am 22.0 23.2 19.9 88 1.3 WNW 13 15 7 8 1009.2 1009.2 3.4
16/06:00am 22.0 23.1 20.5 91 1.0 W 15 19 8 10 1009.3 1009.3 3.4
16/05:30am 22.4 22.1 19.2 82 2.0 N 19 26 10 14 1008.9 1008.9 3.4
16/05:00am 22.2 19.7 18.8 81 2.1 NNE 30 39 16 21 1007.4 1007.4 3.4
16/04:30am 22.4 20.8 20.1 87 1.5 NE 28 35 15 19 1007.5 1007.5 3.4
16/04:05am 22.0 23.8 20.3 90 1.1 E 11 22 6 12 1008.4 1008.4 2.6
16/04:00am 21.9 24.0 20.2 90 1.1 SSE 9 11 5 6 1009.5 1009.5 2.2
16/03:30am 22.1 22.4 19.5 85 1.7 NE 17 26 9 14 1009.5 1009.5 0.4
16/03:00am 22.0 23.4 19.5 86 1.6 ESE 11 17 6 9 1009.3 1009.3 0.2
16/02:30am 23.8 21.9 20.1 80 2.4 WSW 30 44 16 24 1009.9 1009.9 0.0
16/02:00am 23.9 24.2 20.8 83 2.0 NNW 20 30 11 16 1008.7 1008.7 0.0
16/01:30am 24.1 22.8 20.6 81 2.3 N 28 37 15 20 1007.0 1007.0 0.0
16/01:00am 24.3 25.2 20.0 77 2.8 NNW 15 19 8 10 1008.8 1008.8 0.0
16/12:30am 24.5 25.9 20.4 78 2.7 N 13 17 7 9 1009.2 1009.2 0.0
16/12:00am 24.5 25.5 20.2 77 2.8 NW 15 19 8 10 1008.9 1008.9 0.0
 
Date/Time
EST
Temp
°C
App
Temp
°C
Dew
Point
°C
Rel
Hum
%
Delta-T
°C
Wind Press
QNH
hPa
Press
MSL
hPa
Rain since
9am
mm
Dir  Spd
km/h
Gust
km/h
Spd
kts
Gust
kts
15/11:30pm 25.4 24.4 20.4 74 3.3 N 26 35 14 19 1008.9 1008.9 0.0
15/11:00pm 25.5 24.0 20.3 73 3.4 N 28 33 15 18 1009.0 1009.0 0.0
15/10:30pm 25.3 23.8 20.3 74 3.3 NNE 28 35 15 19 1009.2 1009.2 0.0
15/10:00pm 25.6 24.3 20.6 74 3.3 NNE 28 33 15 18 1008.8 1008.8 0.0
15/09:30pm 25.5 24.2 20.7 75 3.1 NNE 28 33 15 18 1009.0 1009.0 0.0
15/09:00pm 25.5 24.1 20.5 74 3.3 N 28 33 15 18 1008.9 1008.9 0.0
15/08:30pm 25.3 24.7 20.5 75 3.1 NNE 24 32 13 17 1008.9 1008.9 0.0
15/08:00pm 25.3 23.9 20.5 75 3.1 NNE 28 33 15 18 1008.2 1008.2 0.0
15/07:30pm 25.6 24.7 20.6 74 3.3 NNE 26 33 14 18 1008.4 1008.4 0.0
15/07:00pm 25.4 24.7 20.2 73 3.4 NNE 24 32 13 17 1008.7 1008.7 0.0
15/06:30pm 25.5 24.3 20.1 72 3.5 NNE 26 33 14 18 1008.1 1008.1 0.0
15/06:00pm 25.9 24.4 20.2 71 3.7 NNE 28 33 15 18 1006.9 1006.9 0.0
15/05:58pm 26.0 24.5 20.3 71 3.7 NNE 28 33 15 18 1006.9 1006.9 0.0
15/05:50pm 26.1 25.2 20.7 72 3.5 NNE 26 33 14 18 1004.8 1004.8 0.0
15/05:30pm 26.5 25.2 20.6 70 3.9 NNE 28 35 15 19 1007.6 1007.6 0.0
15/05:19pm 26.9 25.5 20.5 68 4.2 NNE 28 33 15 18 1009.7 1009.7 0.0
15/05:00pm 27.2 26.5 21.0 69 4.1 NNE 26 35 14 19 1007.2 1007.2 0.0
15/04:30pm 27.5 25.8 19.8 63 5.0 NNE 28 33 15 18 1007.2 1007.2 0.0
15/04:00pm 27.5 26.3 19.3 61 5.3 NNE 24 30 13 16 1007.4 1007.4 0.0
15/03:30pm 27.9 27.0 19.9 61 5.2 NNE 24 32 13 17 1007.5 1007.5 0.0
15/03:00pm 27.8 27.4 20.1 63 5.0 NNE 22 30 12 16 1007.5 1007.5 0.0
15/02:30pm 28.2 27.8 21.0 65 4.8 NE 24 32 13 17 1007.8 1007.8 0.0
15/02:00pm 28.3 28.2 20.8 63 5.0 NE 22 30 12 16 1008.1 1008.1 0.0
15/01:30pm 28.0 28.1 21.1 66 4.6 NE 22 32 12 17 1008.3 1008.3 0.0
15/01:00pm 28.2 27.5 20.2 62 5.3 NE 24 33 13 18 1008.5 1008.5 0.0
15/12:30pm 27.5 27.1 20.1 64 4.8 NE 22 30 12 16 1008.7 1008.7 0.0
15/12:00pm 27.9 27.2 18.6 57 6.0 ENE 20 26 11 14 1009.2 1009.2 0.0
15/11:30am 28.2 27.8 19.4 59 5.7 NE 20 26 11 14 1009.3 1009.3 0.0
15/11:00am 28.2 28.3 19.2 58 5.8 NNE 17 24 9 13 1009.4 1009.4 0.0
15/10:30am 27.9 28.6 19.7 61 5.3 NNE 15 24 8 13 1009.6 1009.6 0.0
15/10:00am 27.2 27.6 18.2 58 5.7 NNE 13 15 7 8 1009.8 1009.8 0.0
15/09:30am 26.9 27.7 18.2 59 5.5 NNE 11 17 6 9 1009.9 1009.9 0.0
15/09:00am 27.0 27.8 19.1 62 5.1 NE 13 19 7 10 1009.9 1009.9 0.0
15/08:30am 25.7 27.1 19.6 69 3.9 N 11 15 6 8 1010.1 1010.1 0.0
15/08:00am 26.3 28.3 19.2 65 4.6 E 7 9 4 5 1010.5 1010.5 0.0
15/07:30am 25.5 27.8 19.9 71 3.6 SW 7 13 4 7 1010.6 1010.6 0.0
15/07:00am 24.5 26.0 19.8 75 3.0 SW 11 13 6 7 1010.6 1010.6 0.0
15/06:30am 23.3 24.3 19.5 79 2.4 SW 13 17 7 9 1010.4 1010.4 0.0
15/06:00am 22.2 24.5 19.9 87 1.5 WSW 7 9 4 5 1009.7 1009.7 0.0
15/05:30am 20.7 23.8 18.6 88 1.3 CALM 0 0 0 0 1009.4 1009.4 0.0
15/05:00am 21.0 22.9 18.9 88 1.3 SW 7 9 4 5 1009.6 1009.6 0.0
15/04:30am 21.3 22.7 18.7 85 1.6 SSW 9 9 5 5 1009.5 1009.5 0.0
15/04:00am 20.8 22.5 18.6 87 1.4 SW 7 9 4 5 1009.5 1009.5 0.0
15/03:30am 21.4 23.1 18.6 84 1.8 NW 7 11 4 6 1009.4 1009.4 0.0
15/03:00am 22.3 24.5 18.3 78 2.5 NE 4 9 2 5 1009.4 1009.4 0.0
15/02:30am 22.2 23.9 18.4 79 2.4 NE 7 9 4 5 1009.4 1009.4 0.0
15/02:00am 23.6 24.6 18.7 74 3.1 ENE 11 17 6 9 1009.5 1009.5 0.0
15/01:30am 23.6 25.2 18.3 72 3.3 NE 7 11 4 6 1010.1 1010.1 0.0
15/01:00am 24.1 24.7 18.5 71 3.5 ENE 13 15 7 8 1009.8 1009.8 0.0
15/12:30am 24.1 25.0 18.5 71 3.5 NE 11 15 6 8 1010.0 1010.0 0.0
15/12:00am 24.2 25.5 18.4 70 3.7 ENE 9 13 5 7 1010.4 1010.4 0.0
 
Date/Time
EST
Temp
°C
App
Temp
°C
Dew
Point
°C
Rel
Hum
%
Delta-T
°C
Wind Press
QNH
hPa
Press
MSL
hPa
Rain since
9am
mm
Dir  Spd
km/h
Gust
km/h
Spd
kts
Gust
kts
14/11:30pm 24.4 24.9 18.3 69 3.8 NE 13 15 7 8 1010.9 1010.9 0.0
14/11:00pm 23.5 24.6 18.8 75 3.0 NE 11 15 6 8 1011.4 1011.4 0.0
14/10:30pm 24.3 25.3 18.7 71 3.6 ENE 11 17 6 9 1011.6 1011.6 0.0
14/10:00pm 24.5 25.2 18.9 71 3.6 ENE 13 15 7 8 1011.7 1011.7 0.0
14/09:30pm 24.7 25.4 18.9 70 3.7 NE 13 19 7 10 1011.7 1011.7 0.0
14/09:00pm 25.0 25.6 18.7 68 4.0 ENE 13 17 7 9 1011.7 1011.7 0.0
14/08:30pm 24.9 25.7 18.1 66 4.3 ENE 11 15 6 8 1011.7 1011.7 0.0
14/08:00pm 24.9 25.2 17.9 65 4.4 ENE 13 19 7 10 1011.5 1011.5 0.0
14/07:30pm 24.9 24.3 18.4 67 4.1 ENE 19 26 10 14 1011.2 1011.2 0.0
14/07:00pm 25.1 24.7 18.1 65 4.4 ENE 17 26 9 14 1011.1 1011.1 0.0
14/06:30pm 25.2 24.7 17.9 64 4.6 ENE 17 28 9 15 1011.1 1011.1 0.0

Latest Capital City Observations: Canberra | Sydney | Melbourne | Brisbane | Adelaide | Perth | Hobart | Darwin

Other formats

Comma delimited format used in spreadsheet applications
http://www.bom.gov.au/fwo/IDQ60901/IDQ60901.94578.axf

JavaScript Object Notation format (JSON) in row-major order
http://www.bom.gov.au/fwo/IDQ60901/IDQ60901.94578.json

Data quality

Most of these data are generated automatically and are frequently updated. Quality checks on data are not normally performed. It is possible for incorrect values to appear. Refer to information at About Latest Weather Observations and please check the disclaimer before using these data.